Pagrindinis puslapis
METAR-TAF:

METAR-TAF

Oro uostai :

Sinop, Turkija

platuma: 42-00-57N, ilguma: 035-03-59E, Aukštis: 7 m

Dabartinis oras

Ataskaita buvo paskelbta 10 valandos ir 39 minutes, ne 07:50 UTC
Vėjas 10 kt iš Vakarų
Temperatūra 24°C
Drėgmė 61%
Slėgis 1021 hPa
Matomumas 10 km arba daugiau
Mažai debesys ne aukštis 3300 ft
Išsisklaidę debesys ne aukštis 20000 ft

METAR: LTCM 150750Z 28010KT 9999 FEW033 SCT200 24/16 Q1021

Laikas: 21:29 (18:29 UTC)

Prognozė

Ataskaita buvo paskelbta 4 valandos ir 49 minutes, ne 13:40 UTC
Prognozė galioja nuo 15 metu 15 UTC su 15 metu 24 UTC
Vėjas 7 kt iš Šiaurės/Šiaurės Rytų
Matomumas 10 km arba daugiau
Išsisklaidę debesys ne aukštis 3300 ft
Išsisklaidę debesys ne aukštis 10000 ft
Su prošvaistėmis ne aukštis 20000 ft
Laikinai
nuo 15 metu 18 UTC su 15 metu 21 UTC
Su prošvaistėmis ne aukštis 2700 ft
Su prošvaistėmis ne aukštis 9000 ft
lietus

TAF: LTCM 151340Z 1515/1524 02007KT 9999 SCT033 SCT100 BKN200 TEMPO 1518/1521 -SHRA BKN027 BKN090

Orai ataskaitas ir orų prognozės (METAR, TAF).

turimą stotys yra geltonos ir raudonos taškus žemėlapyje.

Perkelti pele per norėdami pamatyti stoties vardą.

Tada spustelėkite, norėdami matyti oro stebėjimo ir prognozės.

Norėdami pakeisti žemėlapį: spustelėkite ant žalios mygtukų su juodo kryžiaus žemyn,; žalią mygtuką su brūkšneliu, jei norite nutolinti; arba žalių rodyklių gretimoms žemėlapius.


METAR-TAF: